sensor_id;sensor_type;location;lat;lon;timestamp;pressure;altitude;pressure_sealevel;temperature;humidity
63033;BME280;49121;38.932;-9.018;2023-05-07T00:03:02;111992.50;;;-145.11;84.41
63033;BME280;49121;38.932;-9.018;2023-05-07T00:07:25;111992.50;;;-145.11;84.43
63033;BME280;49121;38.932;-9.018;2023-05-07T00:09:26;111992.50;;;-145.11;83.90
63033;BME280;49121;38.932;-9.018;2023-05-07T00:11:27;111992.50;;;-145.11;83.59
63033;BME280;49121;38.932;-9.018;2023-05-07T00:13:46;111992.50;;;-145.11;83.45
63033;BME280;49121;38.932;-9.018;2023-05-07T00:16:05;111992.50;;;-145.11;83.43
63033;BME280;49121;38.932;-9.018;2023-05-07T00:18:06;111992.50;;;-145.11;83.77
63033;BME280;49121;38.932;-9.018;2023-05-07T00:20:06;111992.50;;;-145.11;83.78
63033;BME280;49121;38.932;-9.018;2023-05-07T00:22:07;111992.50;;;-145.11;83.97
63033;BME280;49121;38.932;-9.018;2023-05-07T00:24:08;111992.50;;;-145.11;84.57
63033;BME280;49121;38.932;-9.018;2023-05-07T00:26:08;111992.50;;;-145.11;85.04
63033;BME280;49121;38.932;-9.018;2023-05-07T00:28:09;111992.50;;;-145.11;85.47
63033;BME280;49121;38.932;-9.018;2023-05-07T00:30:09;111992.50;;;-145.11;85.63
63033;BME280;49121;38.932;-9.018;2023-05-07T00:32:10;111992.50;;;-145.11;85.75
63033;BME280;49121;38.932;-9.018;2023-05-07T00:36:29;111992.50;;;-145.11;86.32
63033;BME280;49121;38.932;-9.018;2023-05-07T00:38:49;111992.50;;;-145.11;86.10
63033;BME280;49121;38.932;-9.018;2023-05-07T00:40:49;111992.50;;;-145.11;86.17
63033;BME280;49121;38.932;-9.018;2023-05-07T00:43:10;111992.50;;;-145.11;86.72
63033;BME280;49121;38.932;-9.018;2023-05-07T00:45:29;111992.50;;;-145.11;86.78
63033;BME280;49121;38.932;-9.018;2023-05-07T00:47:30;111992.50;;;-145.11;86.92
63033;BME280;49121;38.932;-9.018;2023-05-07T00:49:43;111992.50;;;-145.11;87.26
63033;BME280;49121;38.932;-9.018;2023-05-07T00:51:44;111992.50;;;-145.11;87.21
63033;BME280;49121;38.932;-9.018;2023-05-07T00:53:45;111992.50;;;-145.11;87.49
63033;BME280;49121;38.932;-9.018;2023-05-07T00:55:46;111992.50;;;-145.11;87.65
63033;BME280;49121;38.932;-9.018;2023-05-07T01:00:07;111992.50;;;-145.11;88.13
63033;BME280;49121;38.932;-9.018;2023-05-07T01:02:11;111992.50;;;-145.11;88.49
63033;BME280;49121;38.932;-9.018;2023-05-07T01:04:15;111992.50;;;-145.11;88.06
63033;BME280;49121;38.932;-9.018;2023-05-07T01:06:15;111992.50;;;-145.11;87.49
63033;BME280;49121;38.932;-9.018;2023-05-07T01:08:17;111992.50;;;-145.11;86.95
63033;BME280;49121;38.932;-9.018;2023-05-07T01:10:17;111992.50;;;-145.11;86.72
63033;BME280;49121;38.932;-9.018;2023-05-07T01:14:37;111992.50;;;-145.11;87.11
63033;BME280;49121;38.932;-9.018;2023-05-07T01:16:37;111992.50;;;-145.11;86.86
63033;BME280;49121;38.932;-9.018;2023-05-07T01:18:38;111992.50;;;-145.11;86.78
63033;BME280;49121;38.932;-9.018;2023-05-07T01:22:58;111992.50;;;-145.11;86.74
63033;BME280;49121;38.932;-9.018;2023-05-07T01:25:18;111992.50;;;-145.11;87.07
63033;BME280;49121;38.932;-9.018;2023-05-07T01:27:25;111992.50;;;-145.11;86.99
63033;BME280;49121;38.932;-9.018;2023-05-07T01:29:28;111992.50;;;-145.11;87.14
63033;BME280;49121;38.932;-9.018;2023-05-07T01:31:29;111992.50;;;-145.11;87.22
63033;BME280;49121;38.932;-9.018;2023-05-07T01:35:49;111992.50;;;-145.11;87.72
63033;BME280;49121;38.932;-9.018;2023-05-07T01:37:50;111992.50;;;-145.11;87.81
63033;BME280;49121;38.932;-9.018;2023-05-07T01:42:10;111992.50;;;-145.11;88.44
63033;BME280;49121;38.932;-9.018;2023-05-07T01:44:29;111992.50;;;-145.11;88.20
63033;BME280;49121;38.932;-9.018;2023-05-07T01:46:29;111992.50;;;-145.11;88.38
63033;BME280;49121;38.932;-9.018;2023-05-07T01:48:32;111992.50;;;-145.11;88.54
63033;BME280;49121;38.932;-9.018;2023-05-07T01:50:32;111992.50;;;-145.11;88.49
63033;BME280;49121;38.932;-9.018;2023-05-07T01:52:34;111992.50;;;-145.11;88.38
63033;BME280;49121;38.932;-9.018;2023-05-07T01:54:34;111992.50;;;-145.11;88.44
63033;BME280;49121;38.932;-9.018;2023-05-07T01:56:55;111992.50;;;-145.11;88.61
63033;BME280;49121;38.932;-9.018;2023-05-07T01:59:15;111992.50;;;-145.11;88.68
63033;BME280;49121;38.932;-9.018;2023-05-07T02:01:15;111992.50;;;-145.11;88.93
63033;BME280;49121;38.932;-9.018;2023-05-07T02:03:17;111992.50;;;-145.11;88.78
63033;BME280;49121;38.932;-9.018;2023-05-07T02:05:26;111992.50;;;-145.11;88.54
63033;BME280;49121;38.932;-9.018;2023-05-07T02:07:34;111992.50;;;-145.11;88.52
63033;BME280;49121;38.932;-9.018;2023-05-07T02:09:54;111992.50;;;-145.11;88.37
63033;BME280;49121;38.932;-9.018;2023-05-07T02:11:56;111992.50;;;-145.11;88.19
63033;BME280;49121;38.932;-9.018;2023-05-07T02:13:57;111992.50;;;-145.11;88.07
63033;BME280;49121;38.932;-9.018;2023-05-07T02:15:58;111992.50;;;-145.11;88.10
63033;BME280;49121;38.932;-9.018;2023-05-07T02:18:01;111992.50;;;-145.11;88.08
63033;BME280;49121;38.932;-9.018;2023-05-07T02:20:02;111992.50;;;-145.11;88.19
63033;BME280;49121;38.932;-9.018;2023-05-07T02:22:07;111992.50;;;-145.11;88.35
63033;BME280;49121;38.932;-9.018;2023-05-07T02:24:19;111992.50;;;-145.11;88.60
63033;BME280;49121;38.932;-9.018;2023-05-07T02:26:20;111992.50;;;-145.11;88.83
63033;BME280;49121;38.932;-9.018;2023-05-07T02:28:22;111992.50;;;-145.11;88.71
63033;BME280;49121;38.932;-9.018;2023-05-07T02:30:35;111992.50;;;-145.11;89.04
63033;BME280;49121;38.932;-9.018;2023-05-07T02:32:54;111992.50;;;-145.11;89.79
63033;BME280;49121;38.932;-9.018;2023-05-07T02:34:55;111992.50;;;-145.11;89.71
63033;BME280;49121;38.932;-9.018;2023-05-07T02:36:55;111992.50;;;-145.11;89.51
63033;BME280;49121;38.932;-9.018;2023-05-07T02:38:58;111992.50;;;-145.11;89.69
63033;BME280;49121;38.932;-9.018;2023-05-07T02:40:58;111992.50;;;-145.11;89.58
63033;BME280;49121;38.932;-9.018;2023-05-07T02:42:59;111992.50;;;-145.11;89.43
63033;BME280;49121;38.932;-9.018;2023-05-07T02:45:00;111992.50;;;-145.11;89.55
63033;BME280;49121;38.932;-9.018;2023-05-07T02:47:00;111992.50;;;-145.11;89.69
63033;BME280;49121;38.932;-9.018;2023-05-07T02:49:01;111992.50;;;-145.11;89.71
63033;BME280;49121;38.932;-9.018;2023-05-07T02:51:20;111992.50;;;-145.11;89.55
63033;BME280;49121;38.932;-9.018;2023-05-07T02:53:21;111992.50;;;-145.11;89.50
63033;BME280;49121;38.932;-9.018;2023-05-07T02:55:22;111992.50;;;-145.11;89.51
63033;BME280;49121;38.932;-9.018;2023-05-07T02:57:22;111992.50;;;-145.11;89.33
63033;BME280;49121;38.932;-9.018;2023-05-07T02:59:23;111992.50;;;-145.11;89.57
63033;BME280;49121;38.932;-9.018;2023-05-07T03:01:24;111992.50;;;-145.11;89.45
63033;BME280;49121;38.932;-9.018;2023-05-07T03:03:34;111992.50;;;-145.11;89.46
63033;BME280;49121;38.932;-9.018;2023-05-07T03:05:35;111992.50;;;-145.11;89.24
63033;BME280;49121;38.932;-9.018;2023-05-07T03:07:35;111992.50;;;-145.11;89.14
63033;BME280;49121;38.932;-9.018;2023-05-07T03:09:55;111992.50;;;-145.11;88.16
63033;BME280;49121;38.932;-9.018;2023-05-07T03:11:56;111992.50;;;-145.11;88.63
63033;BME280;49121;38.932;-9.018;2023-05-07T03:14:15;111992.50;;;-145.11;89.04
63033;BME280;49121;38.932;-9.018;2023-05-07T03:16:34;111992.50;;;-145.11;89.44
63033;BME280;49121;38.932;-9.018;2023-05-07T03:18:34;111992.50;;;-145.11;89.22
63033;BME280;49121;38.932;-9.018;2023-05-07T03:23:13;111992.50;;;-145.11;89.11
63033;BME280;49121;38.932;-9.018;2023-05-07T03:25:13;111992.50;;;-145.11;89.05
63033;BME280;49121;38.932;-9.018;2023-05-07T03:27:14;111992.50;;;-145.11;89.43
63033;BME280;49121;38.932;-9.018;2023-05-07T03:29:34;111992.50;;;-145.11;89.28
63033;BME280;49121;38.932;-9.018;2023-05-07T03:31:53;111992.50;;;-145.11;89.71
63033;BME280;49121;38.932;-9.018;2023-05-07T03:34:11;111992.50;;;-145.11;90.05
63033;BME280;49121;38.932;-9.018;2023-05-07T03:36:12;111992.50;;;-145.11;90.42
63033;BME280;49121;38.932;-9.018;2023-05-07T03:38:12;111992.50;;;-145.11;90.66
63033;BME280;49121;38.932;-9.018;2023-05-07T03:40:13;111992.50;;;-145.11;90.31
63033;BME280;49121;38.932;-9.018;2023-05-07T03:42:21;111992.50;;;-145.11;90.04
63033;BME280;49121;38.932;-9.018;2023-05-07T03:44:24;111992.50;;;-145.11;90.54
63033;BME280;49121;38.932;-9.018;2023-05-07T03:46:26;111992.50;;;-145.11;90.84
63033;BME280;49121;38.932;-9.018;2023-05-07T03:48:28;111992.50;;;-145.11;90.83
63033;BME280;49121;38.932;-9.018;2023-05-07T03:50:31;111992.50;;;-145.11;90.80
63033;BME280;49121;38.932;-9.018;2023-05-07T03:52:32;111992.50;;;-145.11;90.53
63033;BME280;49121;38.932;-9.018;2023-05-07T03:54:34;111992.50;;;-145.11;90.15
63033;BME280;49121;38.932;-9.018;2023-05-07T03:56:35;111992.50;;;-145.11;89.75
63033;BME280;49121;38.932;-9.018;2023-05-07T03:58:36;111992.50;;;-145.11;89.36
63033;BME280;49121;38.932;-9.018;2023-05-07T04:00:41;111992.50;;;-145.11;89.75
63033;BME280;49121;38.932;-9.018;2023-05-07T04:03:02;111992.50;;;-145.11;90.45
63033;BME280;49121;38.932;-9.018;2023-05-07T04:05:05;111992.50;;;-145.11;91.00
63033;BME280;49121;38.932;-9.018;2023-05-07T04:07:05;111992.50;;;-145.11;91.24
63033;BME280;49121;38.932;-9.018;2023-05-07T04:09:11;111992.50;;;-145.11;90.69
63033;BME280;49121;38.932;-9.018;2023-05-07T04:11:12;111992.50;;;-145.11;90.67
63033;BME280;49121;38.932;-9.018;2023-05-07T04:13:13;111992.50;;;-145.11;91.11
63033;BME280;49121;38.932;-9.018;2023-05-07T04:15:32;111992.50;;;-145.11;91.77
63033;BME280;49121;38.932;-9.018;2023-05-07T04:20:14;111992.50;;;-145.11;91.12
63033;BME280;49121;38.932;-9.018;2023-05-07T04:22:15;111992.50;;;-145.11;90.84
63033;BME280;49121;38.932;-9.018;2023-05-07T04:24:16;111992.50;;;-145.11;90.51
63033;BME280;49121;38.932;-9.018;2023-05-07T04:26:17;111992.50;;;-145.11;90.58
63033;BME280;49121;38.932;-9.018;2023-05-07T04:32:57;111992.50;;;-145.11;91.01
63033;BME280;49121;38.932;-9.018;2023-05-07T04:35:00;111992.50;;;-145.11;91.01
63033;BME280;49121;38.932;-9.018;2023-05-07T04:37:00;111992.50;;;-145.11;90.98
63033;BME280;49121;38.932;-9.018;2023-05-07T04:39:02;111992.50;;;-145.11;90.85
63033;BME280;49121;38.932;-9.018;2023-05-07T04:43:22;111992.50;;;-145.11;90.63
63033;BME280;49121;38.932;-9.018;2023-05-07T04:45:25;111992.50;;;-145.11;90.38
63033;BME280;49121;38.932;-9.018;2023-05-07T04:47:27;111992.50;;;-145.11;90.48
63033;BME280;49121;38.932;-9.018;2023-05-07T04:49:28;111992.50;;;-145.11;90.61
63033;BME280;49121;38.932;-9.018;2023-05-07T04:51:30;111992.50;;;-145.11;89.06
63033;BME280;49121;38.932;-9.018;2023-05-07T04:53:33;111992.50;;;-145.11;89.07
63033;BME280;49121;38.932;-9.018;2023-05-07T04:55:33;111992.50;;;-145.11;89.25
63033;BME280;49121;38.932;-9.018;2023-05-07T04:57:52;111992.50;;;-145.11;89.74
63033;BME280;49121;38.932;-9.018;2023-05-07T05:00:11;111992.50;;;-145.11;89.85
63033;BME280;49121;38.932;-9.018;2023-05-07T05:02:16;111992.50;;;-145.11;89.79
63033;BME280;49121;38.932;-9.018;2023-05-07T05:04:17;111992.50;;;-145.11;89.81
63033;BME280;49121;38.932;-9.018;2023-05-07T05:06:17;111992.50;;;-145.11;90.00
63033;BME280;49121;38.932;-9.018;2023-05-07T05:08:18;111992.50;;;-145.11;90.15
63033;BME280;49121;38.932;-9.018;2023-05-07T05:10:18;111992.50;;;-145.11;91.44
63033;BME280;49121;38.932;-9.018;2023-05-07T05:12:19;111992.50;;;-145.11;91.25
63033;BME280;49121;38.932;-9.018;2023-05-07T05:14:19;111992.50;;;-145.11;91.77
63033;BME280;49121;38.932;-9.018;2023-05-07T05:16:20;111992.50;;;-145.11;92.46
63033;BME280;49121;38.932;-9.018;2023-05-07T05:18:22;111992.50;;;-145.11;92.03
63033;BME280;49121;38.932;-9.018;2023-05-07T05:20:22;111992.50;;;-145.11;92.46
63033;BME280;49121;38.932;-9.018;2023-05-07T05:22:23;111992.50;;;-145.11;92.53
63033;BME280;49121;38.932;-9.018;2023-05-07T05:26:42;111992.50;;;-145.11;91.70
63033;BME280;49121;38.932;-9.018;2023-05-07T05:28:43;111992.50;;;-145.11;91.21
63033;BME280;49121;38.932;-9.018;2023-05-07T05:30:43;111992.50;;;-145.11;91.51
63033;BME280;49121;38.932;-9.018;2023-05-07T05:32:44;111992.50;;;-145.11;91.89
63033;BME280;49121;38.932;-9.018;2023-05-07T05:34:44;111992.50;;;-145.11;91.73
63033;BME280;49121;38.932;-9.018;2023-05-07T05:37:04;111992.50;;;-145.11;91.64
63033;BME280;49121;38.932;-9.018;2023-05-07T05:39:04;111992.50;;;-145.11;91.83
63033;BME280;49121;38.932;-9.018;2023-05-07T05:41:06;111992.50;;;-145.11;91.76
63033;BME280;49121;38.932;-9.018;2023-05-07T05:43:06;111992.50;;;-145.11;91.51
63033;BME280;49121;38.932;-9.018;2023-05-07T05:45:07;111992.50;;;-145.11;91.75
63033;BME280;49121;38.932;-9.018;2023-05-07T05:47:08;111992.50;;;-145.11;91.43
63033;BME280;49121;38.932;-9.018;2023-05-07T05:49:09;111992.50;;;-145.11;91.26
63033;BME280;49121;38.932;-9.018;2023-05-07T05:51:11;111992.50;;;-145.11;91.01
63033;BME280;49121;38.932;-9.018;2023-05-07T05:53:30;111992.50;;;-145.11;90.79
63033;BME280;49121;38.932;-9.018;2023-05-07T05:55:49;111992.50;;;-145.11;90.51
63033;BME280;49121;38.932;-9.018;2023-05-07T05:57:50;111992.50;;;-145.11;90.23
63033;BME280;49121;38.932;-9.018;2023-05-07T05:59:51;111992.50;;;-145.11;89.74
63033;BME280;49121;38.932;-9.018;2023-05-07T06:01:52;111992.50;;;-145.11;89.14
63033;BME280;49121;38.932;-9.018;2023-05-07T06:06:12;111992.50;;;-145.11;88.25
63033;BME280;49121;38.932;-9.018;2023-05-07T06:10:50;111992.50;;;-145.11;87.06
63033;BME280;49121;38.932;-9.018;2023-05-07T06:18:06;111992.50;;;-145.11;83.92
63033;BME280;49121;38.932;-9.018;2023-05-07T06:20:25;111992.50;;;-145.11;82.63
63033;BME280;49121;38.932;-9.018;2023-05-07T06:22:26;111992.50;;;-145.11;82.11
63033;BME280;49121;38.932;-9.018;2023-05-07T06:24:26;111992.50;;;-145.11;81.94
63033;BME280;49121;38.932;-9.018;2023-05-07T06:26:27;111992.50;;;-145.11;81.73
63033;BME280;49121;38.932;-9.018;2023-05-07T06:28:27;111992.50;;;-145.11;81.26
63033;BME280;49121;38.932;-9.018;2023-05-07T06:30:28;111992.50;;;-145.11;78.94
63033;BME280;49121;38.932;-9.018;2023-05-07T06:32:29;111992.50;;;-145.11;79.38
63033;BME280;49121;38.932;-9.018;2023-05-07T06:34:30;111992.50;;;-145.11;76.15
63033;BME280;49121;38.932;-9.018;2023-05-07T06:36:32;111992.50;;;-145.11;70.68
63033;BME280;49121;38.932;-9.018;2023-05-07T06:38:35;111992.50;;;-145.11;68.30
63033;BME280;49121;38.932;-9.018;2023-05-07T06:40:36;111992.50;;;-145.11;66.19
63033;BME280;49121;38.932;-9.018;2023-05-07T06:42:37;111992.50;;;-145.11;63.33
63033;BME280;49121;38.932;-9.018;2023-05-07T06:44:55;111992.50;;;-145.11;62.28
63033;BME280;49121;38.932;-9.018;2023-05-07T06:46:56;111992.50;;;-145.11;62.03
63033;BME280;49121;38.932;-9.018;2023-05-07T06:49:15;111992.50;;;-145.11;59.48
63033;BME280;49121;38.932;-9.018;2023-05-07T06:51:16;111992.50;;;-145.11;58.08
63033;BME280;49121;38.932;-9.018;2023-05-07T06:53:17;111992.50;;;-145.11;59.02
63033;BME280;49121;38.932;-9.018;2023-05-07T06:55:18;111992.50;;;-145.11;56.91
63033;BME280;49121;38.932;-9.018;2023-05-07T06:57:20;111992.50;;;-145.11;59.80
63033;BME280;49121;38.932;-9.018;2023-05-07T06:59:39;111992.50;;;-145.11;57.90
63033;BME280;49121;38.932;-9.018;2023-05-07T07:01:39;111992.50;;;-145.11;59.83
63033;BME280;49121;38.932;-9.018;2023-05-07T07:03:42;111992.50;;;-145.11;55.78
63033;BME280;49121;38.932;-9.018;2023-05-07T07:05:42;111992.50;;;-145.11;56.43
63033;BME280;49121;38.932;-9.018;2023-05-07T07:08:01;111992.50;;;-145.11;57.59
63033;BME280;49121;38.932;-9.018;2023-05-07T07:10:02;111992.50;;;-145.11;57.13
63033;BME280;49121;38.932;-9.018;2023-05-07T07:12:05;111992.50;;;-145.11;55.39
63033;BME280;49121;38.932;-9.018;2023-05-07T07:16:27;111992.50;;;-145.11;52.07
63033;BME280;49121;38.932;-9.018;2023-05-07T07:18:28;111992.50;;;-145.11;52.08
63033;BME280;49121;38.932;-9.018;2023-05-07T07:20:28;111992.50;;;-145.11;52.12
63033;BME280;49121;38.932;-9.018;2023-05-07T07:22:29;111992.50;;;-145.11;52.07
63033;BME280;49121;38.932;-9.018;2023-05-07T07:24:30;111992.50;;;-145.11;51.90
63033;BME280;49121;38.932;-9.018;2023-05-07T07:26:34;111992.50;;;-145.11;53.37
63033;BME280;49121;38.932;-9.018;2023-05-07T07:28:34;111992.50;;;-145.11;51.32
63033;BME280;49121;38.932;-9.018;2023-05-07T07:35:44;111992.50;;;-145.11;49.09
63033;BME280;49121;38.932;-9.018;2023-05-07T07:38:02;111992.50;;;-145.11;49.66
63033;BME280;49121;38.932;-9.018;2023-05-07T07:40:22;111992.50;;;-145.11;50.77
63033;BME280;49121;38.932;-9.018;2023-05-07T07:42:23;111992.50;;;-145.11;51.29
63033;BME280;49121;38.932;-9.018;2023-05-07T07:44:23;111992.50;;;-145.11;50.51
63033;BME280;49121;38.932;-9.018;2023-05-07T07:46:30;111992.50;;;-145.11;50.35
63033;BME280;49121;38.932;-9.018;2023-05-07T07:48:31;111992.50;;;-145.11;50.54
63033;BME280;49121;38.932;-9.018;2023-05-07T07:50:32;111992.50;;;-145.11;49.93
63033;BME280;49121;38.932;-9.018;2023-05-07T07:52:33;111992.50;;;-145.11;47.99
63033;BME280;49121;38.932;-9.018;2023-05-07T07:54:34;111992.50;;;-145.11;47.51
63033;BME280;49121;38.932;-9.018;2023-05-07T07:56:35;111992.50;;;-145.11;47.67
63033;BME280;49121;38.932;-9.018;2023-05-07T07:58:37;111992.50;;;-145.11;49.13
63033;BME280;49121;38.932;-9.018;2023-05-07T08:05:22;111992.50;;;-145.11;47.50
63033;BME280;49121;38.932;-9.018;2023-05-07T08:07:23;111992.50;;;-145.11;48.28
63033;BME280;49121;38.932;-9.018;2023-05-07T08:16:42;111992.50;;;-145.11;47.22
63033;BME280;49121;38.932;-9.018;2023-05-07T08:18:42;111992.50;;;-145.11;47.29
63033;BME280;49121;38.932;-9.018;2023-05-07T08:20:43;111992.50;;;-145.11;46.89
63033;BME280;49121;38.932;-9.018;2023-05-07T08:22:48;111992.50;;;-145.11;47.80
63033;BME280;49121;38.932;-9.018;2023-05-07T08:32:24;111992.50;;;-145.11;44.99
63033;BME280;49121;38.932;-9.018;2023-05-07T08:34:43;111992.50;;;-145.11;46.02
63033;BME280;49121;38.932;-9.018;2023-05-07T08:36:43;111992.50;;;-145.11;45.57
63033;BME280;49121;38.932;-9.018;2023-05-07T08:38:47;111992.50;;;-145.11;45.75
63033;BME280;49121;38.932;-9.018;2023-05-07T08:40:51;111992.50;;;-145.11;46.07
63033;BME280;49121;38.932;-9.018;2023-05-07T08:42:53;111992.50;;;-145.11;44.30
63033;BME280;49121;38.932;-9.018;2023-05-07T08:44:55;111992.50;;;-145.11;44.45
63033;BME280;49121;38.932;-9.018;2023-05-07T08:46:57;111992.50;;;-145.11;42.56
63033;BME280;49121;38.932;-9.018;2023-05-07T08:49:08;111992.50;;;-145.11;45.10
63033;BME280;49121;38.932;-9.018;2023-05-07T08:51:12;111992.50;;;-145.11;43.45
63033;BME280;49121;38.932;-9.018;2023-05-07T08:53:16;111992.50;;;-145.11;45.95
63033;BME280;49121;38.932;-9.018;2023-05-07T08:55:16;111992.50;;;-145.11;48.23
63033;BME280;49121;38.932;-9.018;2023-05-07T08:57:18;111992.50;;;-145.11;44.98
63033;BME280;49121;38.932;-9.018;2023-05-07T09:02:02;111992.50;;;-145.11;45.38
63033;BME280;49121;38.932;-9.018;2023-05-07T09:04:20;111992.50;;;-145.11;44.18
63033;BME280;49121;38.932;-9.018;2023-05-07T09:06:21;111992.50;;;-145.11;45.68
63033;BME280;49121;38.932;-9.018;2023-05-07T09:08:40;111992.50;;;-145.11;44.16
63033;BME280;49121;38.932;-9.018;2023-05-07T09:11:01;111992.50;;;-145.11;44.08
63033;BME280;49121;38.932;-9.018;2023-05-07T09:13:02;111992.50;;;-145.11;43.99
63033;BME280;49121;38.932;-9.018;2023-05-07T09:20:19;111992.50;;;-145.11;44.68
63033;BME280;49121;38.932;-9.018;2023-05-07T09:22:20;111992.50;;;-145.11;43.62
63033;BME280;49121;38.932;-9.018;2023-05-07T09:24:31;111992.50;;;-145.11;45.02
63033;BME280;49121;38.932;-9.018;2023-05-07T09:26:37;111992.50;;;-145.11;43.39
63033;BME280;49121;38.932;-9.018;2023-05-07T09:28:39;111992.50;;;-145.11;43.09
63033;BME280;49121;38.932;-9.018;2023-05-07T09:30:41;111992.50;;;-145.11;45.98
63033;BME280;49121;38.932;-9.018;2023-05-07T09:32:44;111992.50;;;-145.11;46.04
63033;BME280;49121;38.932;-9.018;2023-05-07T09:34:50;111992.50;;;-145.11;45.36
63033;BME280;49121;38.932;-9.018;2023-05-07T09:36:53;111992.50;;;-145.11;41.69
63033;BME280;49121;38.932;-9.018;2023-05-07T09:38:54;111992.50;;;-145.11;41.10
63033;BME280;49121;38.932;-9.018;2023-05-07T09:41:06;111992.50;;;-145.11;40.70
63033;BME280;49121;38.932;-9.018;2023-05-07T09:43:13;111992.50;;;-145.11;39.00
63033;BME280;49121;38.932;-9.018;2023-05-07T09:45:26;111992.50;;;-145.11;39.35
63033;BME280;49121;38.932;-9.018;2023-05-07T09:47:45;111992.50;;;-145.11;39.99
63033;BME280;49121;38.932;-9.018;2023-05-07T09:49:48;111992.50;;;-145.11;40.19
63033;BME280;49121;38.932;-9.018;2023-05-07T09:51:52;111992.50;;;-145.11;40.32
63033;BME280;49121;38.932;-9.018;2023-05-07T09:53:55;111992.50;;;-145.11;41.30
63033;BME280;49121;38.932;-9.018;2023-05-07T09:58:16;111992.50;;;-145.11;40.96
63033;BME280;49121;38.932;-9.018;2023-05-07T10:00:36;111992.50;;;-145.11;39.52
63033;BME280;49121;38.932;-9.018;2023-05-07T10:02:43;111992.50;;;-145.11;40.33
63033;BME280;49121;38.932;-9.018;2023-05-07T10:04:48;111992.50;;;-145.11;43.42
63033;BME280;49121;38.932;-9.018;2023-05-07T10:06:52;111992.50;;;-145.11;42.16
63033;BME280;49121;38.932;-9.018;2023-05-07T10:08:54;111992.50;;;-145.11;39.81
63033;BME280;49121;38.932;-9.018;2023-05-07T10:10:57;111992.50;;;-145.11;40.40
63033;BME280;49121;38.932;-9.018;2023-05-07T10:13:00;111992.50;;;-145.11;41.08
63033;BME280;49121;38.932;-9.018;2023-05-07T10:20:00;111992.50;;;-145.11;43.19
63033;BME280;49121;38.932;-9.018;2023-05-07T10:22:01;111992.50;;;-145.11;43.33
63033;BME280;49121;38.932;-9.018;2023-05-07T10:24:12;111992.50;;;-145.11;42.77
63033;BME280;49121;38.932;-9.018;2023-05-07T10:26:18;111992.50;;;-145.11;41.44
63033;BME280;49121;38.932;-9.018;2023-05-07T10:28:19;111992.50;;;-145.11;41.75
63033;BME280;49121;38.932;-9.018;2023-05-07T10:30:46;111992.50;;;-145.11;41.80
63033;BME280;49121;38.932;-9.018;2023-05-07T10:32:49;111992.50;;;-145.11;41.67
63033;BME280;49121;38.932;-9.018;2023-05-07T10:34:59;111992.50;;;-145.11;42.88
63033;BME280;49121;38.932;-9.018;2023-05-07T10:37:19;111992.50;;;-145.11;42.01
63033;BME280;49121;38.932;-9.018;2023-05-07T10:39:38;111992.50;;;-145.11;42.70
63033;BME280;49121;38.932;-9.018;2023-05-07T10:41:39;111992.50;;;-145.11;41.79
63033;BME280;49121;38.932;-9.018;2023-05-07T10:43:41;111992.50;;;-145.11;42.45
63033;BME280;49121;38.932;-9.018;2023-05-07T10:55:43;111992.50;;;-145.11;44.19
63033;BME280;49121;38.932;-9.018;2023-05-07T10:57:54;111992.50;;;-145.11;43.99
63033;BME280;49121;38.932;-9.018;2023-05-07T11:00:00;111992.50;;;-145.11;44.25
63033;BME280;49121;38.932;-9.018;2023-05-07T11:02:05;111992.50;;;-145.11;44.62
63033;BME280;49121;38.932;-9.018;2023-05-07T11:04:26;111992.50;;;-145.11;45.95
63033;BME280;49121;38.932;-9.018;2023-05-07T11:09:07;111992.50;;;-145.11;45.89
63033;BME280;49121;38.932;-9.018;2023-05-07T11:11:46;111992.50;;;-145.11;46.57
63033;BME280;49121;38.932;-9.018;2023-05-07T11:13:59;111992.50;;;-145.11;46.14
63033;BME280;49121;38.932;-9.018;2023-05-07T11:16:22;111992.50;;;-145.11;46.41
63033;BME280;49121;38.932;-9.018;2023-05-07T11:24:11;111992.50;;;-145.11;45.51
63033;BME280;49121;38.932;-9.018;2023-05-07T11:26:21;111992.50;;;-145.11;45.68
63033;BME280;49121;38.932;-9.018;2023-05-07T11:28:23;111992.50;;;-145.11;46.93
63033;BME280;49121;38.932;-9.018;2023-05-07T11:30:34;111992.50;;;-145.11;47.18
63033;BME280;49121;38.932;-9.018;2023-05-07T11:32:35;111992.50;;;-145.11;45.22
63033;BME280;49121;38.932;-9.018;2023-05-07T11:34:54;111992.50;;;-145.11;45.00
63033;BME280;49121;38.932;-9.018;2023-05-07T11:36:55;111992.50;;;-145.11;45.60
63033;BME280;49121;38.932;-9.018;2023-05-07T11:41:42;111992.50;;;-145.11;44.07
63033;BME280;49121;38.932;-9.018;2023-05-07T11:43:55;111992.50;;;-145.11;44.22
63033;BME280;49121;38.932;-9.018;2023-05-07T11:48:52;111992.50;;;-145.11;43.13
63033;BME280;49121;38.932;-9.018;2023-05-07T11:51:02;111992.50;;;-145.11;42.67
63033;BME280;49121;38.932;-9.018;2023-05-07T11:53:08;111992.50;;;-145.11;43.12
63033;BME280;49121;38.932;-9.018;2023-05-07T11:57:47;111992.50;;;-145.11;42.72
63033;BME280;49121;38.932;-9.018;2023-05-07T11:59:47;111992.50;;;-145.11;42.58
63033;BME280;49121;38.932;-9.018;2023-05-07T12:06:45;111992.50;;;-145.11;41.48
63033;BME280;49121;38.932;-9.018;2023-05-07T12:08:48;111992.50;;;-145.11;41.36
63033;BME280;49121;38.932;-9.018;2023-05-07T12:10:52;111992.50;;;-145.11;42.02
63033;BME280;49121;38.932;-9.018;2023-05-07T12:12:52;111992.50;;;-145.11;43.51
63033;BME280;49121;38.932;-9.018;2023-05-07T12:15:13;111992.50;;;-145.11;43.37
63033;BME280;49121;38.932;-9.018;2023-05-07T12:20:02;111992.50;;;-145.11;42.72
63033;BME280;49121;38.932;-9.018;2023-05-07T12:22:03;111992.50;;;-145.11;43.62
63033;BME280;49121;38.932;-9.018;2023-05-07T12:24:04;111992.50;;;-145.11;44.26
63033;BME280;49121;38.932;-9.018;2023-05-07T12:26:05;111992.50;;;-145.11;42.42
63033;BME280;49121;38.932;-9.018;2023-05-07T12:30:25;111992.50;;;-145.11;42.87